createdAt,value
2017-12-24T00:00:14.047Z,0
2017-12-24T00:00:54.604Z,0
2017-12-24T00:01:35.180Z,0
2017-12-24T00:02:15.733Z,0
2017-12-24T00:02:56.256Z,0
2017-12-24T00:03:36.851Z,0
2017-12-24T00:04:17.348Z,0
2017-12-24T00:04:57.886Z,0
2017-12-24T00:05:38.437Z,0
2017-12-24T00:06:18.969Z,0
2017-12-24T00:06:59.492Z,0
2017-12-24T00:07:40.011Z,0
2017-12-24T00:08:20.597Z,0
2017-12-24T00:09:01.769Z,0
2017-12-24T00:09:42.316Z,0
2017-12-24T00:10:22.876Z,0
2017-12-24T00:11:03.388Z,0
2017-12-24T00:11:43.933Z,0
2017-12-24T00:12:24.485Z,0
2017-12-24T00:13:05.059Z,0
2017-12-24T00:13:45.601Z,0
2017-12-24T00:14:26.162Z,0
2017-12-24T00:15:06.703Z,0
2017-12-24T00:15:47.259Z,0
2017-12-24T00:16:27.819Z,0
2017-12-24T00:17:08.368Z,0
2017-12-24T00:17:48.905Z,0
2017-12-24T00:18:29.480Z,0
2017-12-24T00:19:10.019Z,0
2017-12-24T00:19:50.527Z,0
2017-12-24T00:20:31.052Z,0
2017-12-24T00:21:11.592Z,0
2017-12-24T00:21:52.176Z,0
2017-12-24T00:22:32.689Z,0
2017-12-24T00:23:13.216Z,0
2017-12-24T00:23:53.781Z,0
2017-12-24T00:24:34.333Z,0
2017-12-24T00:25:14.897Z,0
2017-12-24T00:25:55.453Z,0
2017-12-24T00:26:36.091Z,0
2017-12-24T00:27:16.665Z,0
2017-12-24T00:27:57.199Z,0
2017-12-24T00:28:37.742Z,0
2017-12-24T00:29:18.304Z,0
2017-12-24T00:29:58.884Z,0
2017-12-24T00:30:39.399Z,0
2017-12-24T00:31:19.959Z,0
2017-12-24T00:32:00.465Z,0
2017-12-24T00:32:41.016Z,0
2017-12-24T00:33:21.648Z,0
2017-12-24T00:34:02.229Z,0
2017-12-24T00:34:42.781Z,0
2017-12-24T00:35:23.298Z,0
2017-12-24T00:36:03.848Z,0
2017-12-24T00:36:44.424Z,0
2017-12-24T00:37:24.940Z,0
2017-12-24T00:38:05.494Z,0
2017-12-24T00:38:46.033Z,0
2017-12-24T00:39:26.588Z,0
2017-12-24T00:40:07.112Z,0
2017-12-24T00:40:47.662Z,0
2017-12-24T00:41:28.184Z,0
2017-12-24T00:42:08.726Z,0
2017-12-24T00:42:49.273Z,0
2017-12-24T00:43:29.847Z,0
2017-12-24T00:44:10.398Z,0
2017-12-24T00:44:50.929Z,0
2017-12-24T00:45:31.492Z,0
2017-12-24T00:46:12.052Z,0
2017-12-24T00:46:52.633Z,0
2017-12-24T00:47:33.124Z,0
2017-12-24T00:48:13.668Z,0
2017-12-24T00:48:54.210Z,0
2017-12-24T00:49:34.744Z,0
2017-12-24T00:50:15.327Z,0
2017-12-24T00:50:55.889Z,0
2017-12-24T00:51:36.428Z,0
2017-12-24T00:52:16.964Z,0
2017-12-24T00:52:57.518Z,0
2017-12-24T00:53:38.056Z,0
2017-12-24T00:54:18.610Z,0
2017-12-24T00:54:59.141Z,0
2017-12-24T00:55:39.672Z,0
2017-12-24T00:56:20.205Z,0
2017-12-24T00:57:00.747Z,0
2017-12-24T00:57:41.294Z,0
2017-12-24T00:58:21.836Z,0
2017-12-24T00:59:02.384Z,0
2017-12-24T00:59:42.966Z,0
2017-12-24T01:00:23.505Z,0
2017-12-24T01:01:04.042Z,0
2017-12-24T01:01:44.584Z,0
2017-12-24T01:02:25.130Z,0
2017-12-24T01:03:05.680Z,0
2017-12-24T01:03:46.218Z,0
2017-12-24T01:04:26.770Z,0
2017-12-24T01:05:07.314Z,0
2017-12-24T01:05:47.865Z,0
2017-12-24T01:06:28.438Z,0
2017-12-24T01:07:08.999Z,0
2017-12-24T01:07:49.564Z,0
2017-12-24T01:08:30.084Z,0
2017-12-24T01:09:10.664Z,0
2017-12-24T01:09:51.223Z,0
2017-12-24T01:10:31.739Z,0
2017-12-24T01:11:12.314Z,0
2017-12-24T01:11:52.851Z,0
2017-12-24T01:12:33.374Z,0
2017-12-24T01:13:13.930Z,0
2017-12-24T01:13:54.478Z,0
2017-12-24T01:14:35.036Z,0
2017-12-24T01:15:15.587Z,0
2017-12-24T01:15:56.121Z,0
2017-12-24T01:16:36.647Z,0
2017-12-24T01:17:17.191Z,0
2017-12-24T01:17:57.725Z,0
2017-12-24T01:18:38.263Z,0
2017-12-24T01:19:18.794Z,0
2017-12-24T01:19:59.314Z,0
2017-12-24T01:20:39.865Z,0
2017-12-24T01:21:20.401Z,0
2017-12-24T01:22:00.945Z,0
2017-12-24T01:22:41.498Z,0
2017-12-24T01:23:22.052Z,0
2017-12-24T01:24:02.607Z,0
2017-12-24T01:24:43.136Z,0
2017-12-24T01:25:23.687Z,0
2017-12-24T01:26:04.259Z,0
2017-12-24T01:26:44.784Z,0
2017-12-24T01:27:25.329Z,0
2017-12-24T01:28:05.872Z,0
2017-12-24T01:28:46.412Z,0
2017-12-24T01:29:26.996Z,0
2017-12-24T01:30:07.534Z,0
2017-12-24T01:30:48.075Z,0
2017-12-24T01:31:28.627Z,0
2017-12-24T01:32:09.159Z,0
2017-12-24T01:32:49.656Z,0
2017-12-24T01:33:30.191Z,0
2017-12-24T01:34:10.728Z,0
2017-12-24T01:34:51.313Z,0
2017-12-24T01:35:31.803Z,0
2017-12-24T01:36:12.344Z,0
2017-12-24T01:36:52.899Z,0
2017-12-24T01:37:33.458Z,0
2017-12-24T01:38:14.038Z,0
2017-12-24T01:38:54.548Z,0
2017-12-24T01:39:35.103Z,0
2017-12-24T01:40:15.627Z,0
2017-12-24T01:40:56.186Z,0
2017-12-24T01:41:36.720Z,0
2017-12-24T01:42:17.268Z,0
2017-12-24T01:42:57.803Z,0
2017-12-24T01:43:38.350Z,0
2017-12-24T01:44:18.922Z,0
2017-12-24T01:44:59.516Z,0
2017-12-24T01:45:40.040Z,0
2017-12-24T01:46:20.593Z,0
2017-12-24T01:47:01.167Z,0
2017-12-24T01:47:41.674Z,0
2017-12-24T01:48:22.214Z,0
2017-12-24T01:49:02.760Z,0
2017-12-24T01:49:43.317Z,0
2017-12-24T01:50:23.860Z,0
2017-12-24T01:51:04.405Z,0
2017-12-24T01:51:44.983Z,0
2017-12-24T01:52:25.494Z,0
2017-12-24T01:53:06.012Z,0
2017-12-24T01:53:46.622Z,0
2017-12-24T01:54:27.170Z,0
2017-12-24T01:55:07.744Z,0
2017-12-24T01:55:48.254Z,0
2017-12-24T01:56:28.791Z,0
2017-12-24T01:57:09.335Z,0
2017-12-24T01:57:49.887Z,0
2017-12-24T01:58:30.415Z,0
2017-12-24T01:59:10.982Z,0
2017-12-24T01:59:51.555Z,0
2017-12-24T02:00:32.569Z,0
2017-12-24T02:01:12.624Z,0
2017-12-24T02:01:53.202Z,0
2017-12-24T02:02:33.742Z,0
2017-12-24T02:03:14.276Z,0
2017-12-24T02:03:54.828Z,0
2017-12-24T02:04:35.364Z,0
2017-12-24T02:05:15.951Z,0
2017-12-24T02:05:56.526Z,0
2017-12-24T02:06:37.059Z,0
2017-12-24T02:07:17.594Z,0
2017-12-24T02:07:58.155Z,0
2017-12-24T02:08:38.696Z,0
2017-12-24T02:09:19.228Z,0
2017-12-24T02:09:59.790Z,0
2017-12-24T02:10:40.336Z,0
2017-12-24T02:11:20.879Z,0
2017-12-24T02:12:01.469Z,0
2017-12-24T02:12:42.070Z,0
2017-12-24T02:13:22.550Z,0
2017-12-24T02:14:03.111Z,0
2017-12-24T02:14:43.716Z,0
2017-12-24T02:15:24.219Z,0
2017-12-24T02:16:04.749Z,0
2017-12-24T02:16:45.277Z,0
2017-12-24T02:17:25.834Z,0
2017-12-24T02:18:06.346Z,0
2017-12-24T02:18:46.931Z,0
2017-12-24T02:19:27.456Z,0
2017-12-24T02:20:08.005Z,0
2017-12-24T02:20:48.546Z,0
2017-12-24T02:21:29.094Z,0
2017-12-24T02:22:09.646Z,0
2017-12-24T02:22:50.157Z,0
2017-12-24T02:23:30.684Z,0
2017-12-24T02:24:11.246Z,0
2017-12-24T02:24:51.788Z,0
2017-12-24T02:25:32.353Z,0
2017-12-24T02:26:12.891Z,0
2017-12-24T02:26:53.409Z,0
2017-12-24T02:27:33.967Z,0
2017-12-24T02:28:14.509Z,0
2017-12-24T02:28:55.006Z,0
2017-12-24T02:29:35.555Z,0
2017-12-24T02:30:16.114Z,0
2017-12-24T02:30:56.639Z,0
2017-12-24T02:31:37.155Z,0
2017-12-24T02:32:17.704Z,0
2017-12-24T02:32:58.248Z,0
2017-12-24T02:33:38.786Z,0
2017-12-24T02:34:19.341Z,0
2017-12-24T02:34:59.881Z,0
2017-12-24T02:35:40.449Z,0
2017-12-24T02:36:21.000Z,0
2017-12-24T02:37:01.597Z,0
2017-12-24T02:37:42.089Z,0
2017-12-24T02:38:22.711Z,0
2017-12-24T02:39:03.246Z,0
2017-12-24T02:39:43.776Z,0
2017-12-24T02:40:24.347Z,0
2017-12-24T02:41:04.885Z,0
2017-12-24T02:41:45.478Z,0
2017-12-24T02:42:25.992Z,0
2017-12-24T02:43:06.557Z,0
2017-12-24T02:43:47.055Z,0
2017-12-24T02:44:27.606Z,0
2017-12-24T02:45:08.133Z,0
2017-12-24T02:45:48.702Z,0
2017-12-24T02:46:29.232Z,0
2017-12-24T02:47:09.787Z,0
2017-12-24T02:47:50.322Z,0
2017-12-24T02:48:30.867Z,0
2017-12-24T02:49:11.403Z,0
2017-12-24T02:49:51.966Z,0
2017-12-24T02:50:32.551Z,0
2017-12-24T02:51:13.095Z,0
2017-12-24T02:51:53.649Z,0
2017-12-24T02:52:34.160Z,0
2017-12-24T02:53:14.695Z,0
2017-12-24T02:53:55.258Z,0
2017-12-24T02:54:35.800Z,0
2017-12-24T02:55:16.415Z,0
2017-12-24T02:55:56.879Z,0
2017-12-24T02:56:37.434Z,0
2017-12-24T02:57:18.002Z,0
2017-12-24T02:57:58.568Z,0
2017-12-24T02:58:39.106Z,0
2017-12-24T02:59:19.654Z,0
2017-12-24T03:00:00.235Z,0
2017-12-24T03:00:40.737Z,0
2017-12-24T03:01:21.261Z,0
2017-12-24T03:02:01.900Z,0
2017-12-24T03:02:42.440Z,0
2017-12-24T03:03:23.009Z,0
2017-12-24T03:04:03.563Z,0
2017-12-24T03:04:44.068Z,0
2017-12-24T03:05:24.607Z,0
2017-12-24T03:06:05.173Z,0
2017-12-24T03:06:45.730Z,0
2017-12-24T03:07:26.283Z,0
2017-12-24T03:08:06.845Z,0
2017-12-24T03:08:47.400Z,0
2017-12-24T03:09:27.925Z,0
2017-12-24T03:10:08.482Z,0
2017-12-24T03:10:49.019Z,0
2017-12-24T03:11:30.091Z,0
2017-12-24T03:12:10.401Z,0
2017-12-24T03:12:50.925Z,0
2017-12-24T03:13:31.461Z,0
2017-12-24T03:14:12.010Z,0
2017-12-24T03:14:52.570Z,0
2017-12-24T03:15:33.113Z,0
2017-12-24T03:16:13.685Z,0
2017-12-24T03:16:54.182Z,0
2017-12-24T03:17:34.716Z,0
2017-12-24T03:18:15.314Z,0
2017-12-24T03:18:55.831Z,0
2017-12-24T03:19:36.385Z,0
2017-12-24T03:20:16.960Z,0
2017-12-24T03:20:57.486Z,0
2017-12-24T03:21:38.040Z,0
2017-12-24T03:22:18.554Z,0
2017-12-24T03:22:59.127Z,0
2017-12-24T03:23:39.641Z,0
2017-12-24T03:24:20.196Z,0
2017-12-24T03:25:00.723Z,0
2017-12-24T03:25:41.281Z,0
2017-12-24T03:26:21.860Z,0
2017-12-24T03:27:02.351Z,0
2017-12-24T03:27:42.867Z,0
2017-12-24T03:28:23.384Z,0
2017-12-24T03:29:03.943Z,0
2017-12-24T03:29:44.537Z,0
2017-12-24T03:30:25.059Z,0
2017-12-24T03:31:05.619Z,0
2017-12-24T03:31:46.142Z,0
2017-12-24T03:32:26.699Z,0
2017-12-24T03:33:07.255Z,0
2017-12-24T03:33:47.801Z,0
2017-12-24T03:34:28.352Z,0
2017-12-24T03:35:08.901Z,0
2017-12-24T03:35:49.438Z,0
2017-12-24T03:36:29.988Z,0
2017-12-24T03:37:10.550Z,0
2017-12-24T03:37:51.063Z,0
2017-12-24T03:38:31.613Z,0
2017-12-24T03:39:12.139Z,0
2017-12-24T03:39:52.682Z,0
2017-12-24T03:40:33.237Z,0
2017-12-24T03:41:13.776Z,0
2017-12-24T03:41:54.306Z,0
2017-12-24T03:42:34.861Z,0
2017-12-24T03:43:15.419Z,0
2017-12-24T03:43:56.012Z,0
2017-12-24T03:44:36.551Z,0
2017-12-24T03:45:17.100Z,0
2017-12-24T03:45:57.653Z,0
2017-12-24T03:46:38.205Z,0
2017-12-24T03:47:18.757Z,0
2017-12-24T03:47:59.299Z,0
2017-12-24T03:48:39.843Z,0
2017-12-24T03:49:20.401Z,0
2017-12-24T03:50:00.963Z,0
2017-12-24T03:50:41.487Z,0
2017-12-24T03:51:22.038Z,0
2017-12-24T03:52:02.562Z,0
2017-12-24T03:52:43.088Z,0
2017-12-24T03:53:23.645Z,0
2017-12-24T03:54:04.220Z,0
2017-12-24T03:54:44.742Z,0
2017-12-24T03:55:25.311Z,0
2017-12-24T03:56:05.859Z,0
2017-12-24T03:56:46.408Z,0
2017-12-24T03:57:26.954Z,0
2017-12-24T03:58:07.516Z,0
2017-12-24T03:58:48.071Z,0
2017-12-24T03:59:28.633Z,0
2017-12-24T04:00:09.162Z,0
2017-12-24T04:00:49.680Z,0
2017-12-24T04:01:30.236Z,0
2017-12-24T04:02:10.795Z,0
2017-12-24T04:02:51.365Z,0
2017-12-24T04:03:32.783Z,0
2017-12-24T04:04:13.353Z,0
2017-12-24T04:04:53.917Z,0
2017-12-24T04:05:34.435Z,0
2017-12-24T04:06:14.978Z,0
2017-12-24T04:06:55.516Z,0
2017-12-24T04:07:36.056Z,0
2017-12-24T04:08:16.616Z,0
2017-12-24T04:08:57.189Z,0
2017-12-24T04:09:37.713Z,0
2017-12-24T04:10:18.276Z,0
2017-12-24T04:10:58.816Z,0
2017-12-24T04:11:39.347Z,0
2017-12-24T04:12:19.897Z,0
2017-12-24T04:13:00.452Z,0
2017-12-24T04:13:40.997Z,0
2017-12-24T04:14:21.554Z,0
2017-12-24T04:15:02.117Z,0
2017-12-24T04:15:42.616Z,0
2017-12-24T04:16:23.174Z,0
2017-12-24T04:17:03.653Z,0
2017-12-24T04:17:44.204Z,0
2017-12-24T04:18:24.695Z,0
2017-12-24T04:19:05.251Z,0
2017-12-24T04:19:45.799Z,0
2017-12-24T04:20:26.336Z,0
2017-12-24T04:21:06.891Z,0
2017-12-24T04:21:47.424Z,0
2017-12-24T04:22:27.971Z,0
2017-12-24T04:23:08.529Z,0
2017-12-24T04:23:49.059Z,0
2017-12-24T04:24:29.609Z,0
2017-12-24T04:25:10.166Z,0
2017-12-24T04:25:50.723Z,0
2017-12-24T04:26:31.259Z,0
2017-12-24T04:27:11.837Z,0
2017-12-24T04:27:52.376Z,0
2017-12-24T04:28:32.946Z,0
2017-12-24T04:29:13.493Z,0
2017-12-24T04:29:53.987Z,0
2017-12-24T04:30:34.524Z,0
2017-12-24T04:31:15.090Z,0
2017-12-24T04:31:55.603Z,0
2017-12-24T04:32:36.137Z,0
2017-12-24T04:33:16.664Z,0
2017-12-24T04:33:57.204Z,0
2017-12-24T04:34:37.756Z,0
2017-12-24T04:35:18.283Z,0
2017-12-24T04:35:58.810Z,0
2017-12-24T04:36:39.366Z,0
2017-12-24T04:37:19.866Z,0
2017-12-24T04:38:00.474Z,0
2017-12-24T04:38:41.041Z,0
2017-12-24T04:39:21.572Z,0
2017-12-24T04:40:02.107Z,0
2017-12-24T04:40:42.687Z,0
2017-12-24T04:41:23.247Z,0
2017-12-24T04:42:03.768Z,0
2017-12-24T04:42:44.322Z,0
2017-12-24T04:43:24.891Z,0
2017-12-24T04:44:05.435Z,0
2017-12-24T04:44:46.095Z,0
2017-12-24T04:45:26.645Z,0
2017-12-24T04:46:07.170Z,0
2017-12-24T04:46:47.716Z,0
2017-12-24T04:47:28.270Z,0
2017-12-24T04:48:08.799Z,0
2017-12-24T04:48:49.364Z,0
2017-12-24T04:49:29.869Z,0
2017-12-24T04:50:10.417Z,0
2017-12-24T04:50:50.943Z,0
2017-12-24T04:51:31.488Z,0
2017-12-24T04:52:12.050Z,0
2017-12-24T04:52:52.596Z,0
2017-12-24T04:53:33.140Z,0
2017-12-24T04:54:13.676Z,0
2017-12-24T04:54:54.223Z,0
2017-12-24T04:55:34.770Z,0
2017-12-24T04:56:15.311Z,0
2017-12-24T04:56:55.842Z,0
2017-12-24T04:57:36.386Z,0
2017-12-24T04:58:16.939Z,0
2017-12-24T04:58:57.496Z,0
2017-12-24T04:59:38.072Z,0
2017-12-24T05:00:18.619Z,0
2017-12-24T05:00:59.128Z,0
2017-12-24T05:01:39.676Z,0
2017-12-24T05:02:20.218Z,0
2017-12-24T05:03:00.758Z,0
2017-12-24T05:03:41.296Z,0
2017-12-24T05:04:21.876Z,0
2017-12-24T05:05:02.390Z,0
2017-12-24T05:05:42.907Z,0
2017-12-24T05:06:23.452Z,0
2017-12-24T05:07:04.004Z,0
2017-12-24T05:07:44.526Z,0
2017-12-24T05:08:25.071Z,0
2017-12-24T05:09:05.635Z,0
2017-12-24T05:09:46.110Z,0
2017-12-24T05:10:26.712Z,0
2017-12-24T05:11:07.215Z,0
2017-12-24T05:11:47.733Z,0
2017-12-24T05:12:28.278Z,0
2017-12-24T05:13:08.835Z,0
2017-12-24T05:13:49.397Z,0
2017-12-24T05:14:29.970Z,0
2017-12-24T05:15:10.506Z,0
2017-12-24T05:15:51.059Z,0
2017-12-24T05:16:31.690Z,0
2017-12-24T05:17:12.228Z,0
2017-12-24T05:17:52.756Z,0
2017-12-24T05:18:33.306Z,0
2017-12-24T05:19:13.843Z,0
2017-12-24T05:19:54.388Z,0
2017-12-24T05:20:34.939Z,0
2017-12-24T05:21:15.493Z,0
2017-12-24T05:21:56.042Z,0
2017-12-24T05:22:36.578Z,0
2017-12-24T05:23:17.099Z,0
2017-12-24T05:23:57.658Z,0
2017-12-24T05:24:38.233Z,0
2017-12-24T05:25:18.786Z,0
2017-12-24T05:25:59.373Z,0
2017-12-24T05:26:39.939Z,0
2017-12-24T05:27:20.468Z,0
2017-12-24T05:28:01.025Z,0
2017-12-24T05:28:41.569Z,0
2017-12-24T05:29:22.088Z,0
2017-12-24T05:30:02.645Z,0
2017-12-24T05:30:43.194Z,0
2017-12-24T05:31:23.733Z,0
2017-12-24T05:32:04.306Z,0
2017-12-24T05:32:44.801Z,0
2017-12-24T05:33:25.345Z,0
2017-12-24T05:34:05.904Z,0
2017-12-24T05:34:46.435Z,0
2017-12-24T05:35:26.977Z,0
2017-12-24T05:36:07.527Z,0
2017-12-24T05:36:48.109Z,0
2017-12-24T05:37:28.641Z,0
2017-12-24T05:38:09.193Z,0
2017-12-24T05:38:49.726Z,0
2017-12-24T05:39:30.259Z,0
2017-12-24T05:40:10.794Z,0
2017-12-24T05:40:51.305Z,0
2017-12-24T05:41:31.849Z,0
2017-12-24T05:42:12.399Z,0
2017-12-24T05:42:52.925Z,0
2017-12-24T05:43:33.452Z,0
2017-12-24T05:44:14.000Z,0
2017-12-24T05:44:54.531Z,0
2017-12-24T05:45:35.096Z,0
2017-12-24T05:46:15.659Z,0
2017-12-24T05:46:56.214Z,0
2017-12-24T05:47:36.783Z,0
2017-12-24T05:48:17.334Z,0
2017-12-24T05:48:57.947Z,0
2017-12-24T05:49:38.504Z,0
2017-12-24T05:50:19.613Z,0
2017-12-24T05:51:00.151Z,0
2017-12-24T05:51:40.690Z,0
2017-12-24T05:52:21.248Z,0
2017-12-24T05:53:01.776Z,0
2017-12-24T05:53:42.317Z,0
2017-12-24T05:54:22.875Z,0
2017-12-24T05:55:03.398Z,0
2017-12-24T05:55:43.929Z,0
2017-12-24T05:56:24.479Z,0
2017-12-24T05:57:05.033Z,0
2017-12-24T05:57:45.574Z,0
2017-12-24T05:58:26.104Z,0
2017-12-24T05:59:06.627Z,0
2017-12-24T05:59:47.175Z,0
2017-12-24T06:00:27.714Z,0
2017-12-24T06:01:08.292Z,0
2017-12-24T06:01:48.832Z,0
2017-12-24T06:02:29.368Z,0
2017-12-24T06:03:09.934Z,0
2017-12-24T06:03:50.478Z,0
2017-12-24T06:04:31.014Z,0
2017-12-24T06:05:11.568Z,0
2017-12-24T06:05:52.100Z,0
2017-12-24T06:06:32.667Z,0
2017-12-24T06:07:13.206Z,0
2017-12-24T06:07:53.741Z,0
2017-12-24T06:08:34.307Z,0
2017-12-24T06:09:14.833Z,0
2017-12-24T06:09:55.410Z,0
2017-12-24T06:10:35.937Z,0
2017-12-24T06:11:16.490Z,0
2017-12-24T06:11:57.058Z,0
2017-12-24T06:12:37.604Z,0
2017-12-24T06:13:18.147Z,0
2017-12-24T06:13:58.676Z,0
2017-12-24T06:14:39.211Z,0
2017-12-24T06:15:20.642Z,0
2017-12-24T06:16:00.282Z,0
2017-12-24T06:16:40.823Z,0
2017-12-24T06:17:21.363Z,0
2017-12-24T06:18:01.875Z,0
2017-12-24T06:18:42.453Z,0
2017-12-24T06:19:23.017Z,0
2017-12-24T06:20:03.546Z,0
2017-12-24T06:20:44.129Z,0
2017-12-24T06:21:24.666Z,0
2017-12-24T06:22:05.196Z,0
2017-12-24T06:22:45.726Z,0
2017-12-24T06:23:26.263Z,0
2017-12-24T06:24:06.798Z,0
2017-12-24T06:24:47.314Z,0
2017-12-24T06:25:27.830Z,0
2017-12-24T06:26:08.409Z,0
2017-12-24T06:26:48.909Z,0
2017-12-24T06:27:29.462Z,0
2017-12-24T06:28:10.002Z,0
2017-12-24T06:28:50.547Z,0
2017-12-24T06:29:31.091Z,0
2017-12-24T06:30:11.645Z,0
2017-12-24T06:30:52.194Z,0
2017-12-24T06:31:32.784Z,0
2017-12-24T06:32:13.325Z,0
2017-12-24T06:32:53.833Z,0
2017-12-24T06:33:34.414Z,0
2017-12-24T06:34:14.891Z,0
2017-12-24T06:34:55.470Z,0
2017-12-24T06:35:36.012Z,0
2017-12-24T06:36:16.556Z,0
2017-12-24T06:36:57.107Z,0
2017-12-24T06:37:37.649Z,0
2017-12-24T06:38:18.211Z,0
2017-12-24T06:38:58.724Z,0
2017-12-24T06:39:39.252Z,0
2017-12-24T06:40:19.777Z,0
2017-12-24T06:41:00.325Z,0
2017-12-24T06:41:40.886Z,0
2017-12-24T06:42:21.435Z,0
2017-12-24T06:43:01.999Z,0
2017-12-24T06:43:42.516Z,0
2017-12-24T06:44:23.101Z,0
2017-12-24T06:45:03.640Z,0
2017-12-24T06:45:44.202Z,0
2017-12-24T06:46:24.712Z,0
2017-12-24T06:47:05.245Z,0
2017-12-24T06:47:45.828Z,0
2017-12-24T06:48:26.330Z,0
2017-12-24T06:49:06.890Z,0
2017-12-24T06:49:47.436Z,0
2017-12-24T06:50:28.097Z,0
2017-12-24T06:51:08.641Z,0
2017-12-24T06:51:49.188Z,0
2017-12-24T06:52:29.725Z,0
2017-12-24T06:53:10.271Z,0
2017-12-24T06:53:50.825Z,0
2017-12-24T06:54:31.366Z,0
2017-12-24T06:55:11.921Z,0
2017-12-24T06:55:52.462Z,0
2017-12-24T06:56:32.997Z,0
2017-12-24T06:57:13.544Z,0
2017-12-24T06:57:54.053Z,0
2017-12-24T06:58:34.624Z,0
2017-12-24T06:59:15.224Z,0
2017-12-24T06:59:55.764Z,0
2017-12-24T07:00:36.283Z,0
2017-12-24T07:01:16.846Z,0
2017-12-24T07:01:57.377Z,0
2017-12-24T07:02:37.942Z,0
2017-12-24T07:03:18.475Z,0
2017-12-24T07:03:59.001Z,0
2017-12-24T07:04:39.541Z,0
2017-12-24T07:05:20.080Z,0
2017-12-24T07:06:00.658Z,0
2017-12-24T07:06:41.226Z,0
2017-12-24T07:07:21.757Z,0
2017-12-24T07:08:02.308Z,0
2017-12-24T07:08:42.892Z,0
2017-12-24T07:09:23.411Z,0
2017-12-24T07:10:03.936Z,0
2017-12-24T07:10:44.518Z,0
2017-12-24T07:11:25.088Z,0
2017-12-24T07:12:05.658Z,0
2017-12-24T07:12:46.159Z,0
2017-12-24T07:13:26.676Z,0
2017-12-24T07:14:07.191Z,0
2017-12-24T07:14:47.731Z,0
2017-12-24T07:15:28.307Z,0
2017-12-24T07:16:08.807Z,0
2017-12-24T07:16:49.375Z,0
2017-12-24T07:17:29.935Z,0
2017-12-24T07:18:10.507Z,0
2017-12-24T07:18:51.001Z,0
2017-12-24T07:19:31.548Z,0
2017-12-24T07:20:12.089Z,0
2017-12-24T07:20:52.643Z,0
2017-12-24T07:21:33.194Z,0
2017-12-24T07:22:13.704Z,0
2017-12-24T07:22:54.221Z,0
2017-12-24T07:23:34.777Z,0
2017-12-24T07:24:15.360Z,0
2017-12-24T07:24:55.906Z,0
2017-12-24T07:25:36.462Z,0
2017-12-24T07:26:16.959Z,0
2017-12-24T07:26:57.502Z,0
2017-12-24T07:27:38.024Z,0
2017-12-24T07:28:18.589Z,0
2017-12-24T07:28:59.120Z,0
2017-12-24T07:29:39.645Z,0
2017-12-24T07:30:20.199Z,0
2017-12-24T07:31:00.739Z,5
2017-12-24T07:31:41.279Z,5
2017-12-24T07:32:21.824Z,5
2017-12-24T07:33:02.363Z,5
2017-12-24T07:33:42.902Z,5
2017-12-24T07:34:23.447Z,5
2017-12-24T07:35:03.973Z,5
2017-12-24T07:35:44.558Z,5
2017-12-24T07:36:25.063Z,10
2017-12-24T07:37:05.601Z,10
2017-12-24T07:37:46.151Z,10
2017-12-24T07:38:26.685Z,10
2017-12-24T07:39:07.222Z,15
2017-12-24T07:39:47.730Z,15
2017-12-24T07:40:28.274Z,15
2017-12-24T07:41:08.837Z,15
2017-12-24T07:41:49.416Z,15
2017-12-24T07:42:29.961Z,20
2017-12-24T07:43:10.524Z,20
2017-12-24T07:43:51.079Z,20
2017-12-24T07:44:31.617Z,20
2017-12-24T07:45:12.180Z,20
2017-12-24T07:45:52.710Z,20
2017-12-24T07:46:33.252Z,20
2017-12-24T07:47:13.834Z,20
2017-12-24T07:47:54.406Z,20
2017-12-24T07:48:34.972Z,20
2017-12-24T07:49:15.516Z,20
2017-12-24T07:49:57.179Z,20
2017-12-24T07:50:37.094Z,20
2017-12-24T07:51:17.655Z,25
2017-12-24T07:51:58.169Z,25
2017-12-24T07:52:38.732Z,25
2017-12-24T07:53:19.233Z,25
2017-12-24T07:53:59.783Z,25
2017-12-24T07:54:40.292Z,25
2017-12-24T07:55:20.844Z,25
2017-12-24T07:56:01.380Z,25
2017-12-24T07:56:41.945Z,25
2017-12-24T07:57:22.468Z,25
2017-12-24T07:58:03.013Z,25
2017-12-24T07:58:43.557Z,25
2017-12-24T07:59:24.118Z,25
2017-12-24T08:00:04.650Z,25
2017-12-24T08:00:45.188Z,25
2017-12-24T08:01:25.717Z,25
2017-12-24T08:02:06.276Z,20
2017-12-24T08:02:46.850Z,20
2017-12-24T08:03:27.380Z,20
2017-12-24T08:04:07.947Z,15
2017-12-24T08:04:48.472Z,15
2017-12-24T08:05:29.033Z,20
2017-12-24T08:06:09.570Z,20
2017-12-24T08:06:50.136Z,20
2017-12-24T08:07:30.651Z,20
2017-12-24T08:08:11.283Z,20
2017-12-24T08:08:51.816Z,20
2017-12-24T08:09:32.389Z,25
2017-12-24T08:10:12.915Z,25
2017-12-24T08:10:53.464Z,25
2017-12-24T08:11:33.956Z,25
2017-12-24T08:12:14.503Z,20
2017-12-24T08:12:55.086Z,20
2017-12-24T08:13:35.659Z,20
2017-12-24T08:14:16.184Z,20
2017-12-24T08:14:56.729Z,15
2017-12-24T08:15:37.332Z,15
2017-12-24T08:16:17.846Z,15
2017-12-24T08:16:58.409Z,15
2017-12-24T08:17:38.948Z,15
2017-12-24T08:18:19.494Z,15
2017-12-24T08:19:00.035Z,15
2017-12-24T08:19:40.561Z,15
2017-12-24T08:20:21.109Z,15
2017-12-24T08:21:01.668Z,15
2017-12-24T08:21:42.201Z,10
2017-12-24T08:22:22.763Z,15
2017-12-24T08:23:03.308Z,15
2017-12-24T08:23:43.836Z,15
2017-12-24T08:24:24.394Z,15
2017-12-24T08:25:04.956Z,10
2017-12-24T08:25:45.482Z,15
2017-12-24T08:26:26.037Z,10
2017-12-24T08:27:06.542Z,10
2017-12-24T08:27:47.052Z,10
2017-12-24T08:28:27.612Z,10
2017-12-24T08:29:08.171Z,10
2017-12-24T08:29:48.728Z,10
2017-12-24T08:30:29.270Z,10
2017-12-24T08:31:09.814Z,10
2017-12-24T08:31:50.360Z,10
2017-12-24T08:32:30.911Z,10
2017-12-24T08:33:11.467Z,10
2017-12-24T08:33:52.017Z,10
2017-12-24T08:34:32.534Z,10
2017-12-24T08:35:13.144Z,10
2017-12-24T08:35:53.656Z,10
2017-12-24T08:36:34.199Z,10
2017-12-24T08:37:14.759Z,10
2017-12-24T08:37:55.297Z,10
2017-12-24T08:38:35.841Z,15
2017-12-24T08:39:16.396Z,15
2017-12-24T08:39:56.952Z,20
2017-12-24T08:40:37.449Z,20
2017-12-24T08:41:17.983Z,20
2017-12-24T08:41:58.534Z,25
2017-12-24T08:42:39.094Z,30
2017-12-24T08:43:19.624Z,35
2017-12-24T08:44:00.164Z,40
2017-12-24T08:44:40.729Z,45
2017-12-24T08:45:21.283Z,45
2017-12-24T08:46:01.846Z,45
2017-12-24T08:46:42.396Z,50
2017-12-24T08:47:22.921Z,50
2017-12-24T08:48:03.494Z,50
2017-12-24T08:48:44.066Z,50
2017-12-24T08:49:24.610Z,45
2017-12-24T08:50:05.152Z,45
2017-12-24T08:50:45.709Z,45
2017-12-24T08:51:26.234Z,45
2017-12-24T08:52:06.786Z,45
2017-12-24T08:52:47.403Z,45
2017-12-24T08:53:27.915Z,45
2017-12-24T08:54:08.473Z,45
2017-12-24T08:54:49.024Z,40
2017-12-24T08:55:29.580Z,40
2017-12-24T08:56:10.107Z,40
2017-12-24T08:56:50.642Z,40
2017-12-24T08:57:31.180Z,40
2017-12-24T08:58:11.710Z,40
2017-12-24T08:58:52.283Z,45
2017-12-24T08:59:32.795Z,45
2017-12-24T09:00:13.338Z,45
2017-12-24T09:00:53.906Z,45
2017-12-24T09:01:34.454Z,45
2017-12-24T09:02:14.998Z,45
2017-12-24T09:02:55.565Z,45
2017-12-24T09:03:36.134Z,45
2017-12-24T09:04:16.649Z,45
2017-12-24T09:04:57.198Z,45
2017-12-24T09:05:37.725Z,45
2017-12-24T09:06:18.257Z,40
2017-12-24T09:06:58.800Z,40
2017-12-24T09:07:39.511Z,40
2017-12-24T09:08:20.056Z,40
2017-12-24T09:09:00.545Z,45
2017-12-24T09:09:41.061Z,40
2017-12-24T09:10:21.599Z,40
2017-12-24T09:11:02.157Z,40
2017-12-24T09:11:42.699Z,45
2017-12-24T09:12:23.236Z,45
2017-12-24T09:13:03.781Z,45
2017-12-24T09:13:44.304Z,40
2017-12-24T09:14:24.839Z,40
2017-12-24T09:15:05.364Z,40
2017-12-24T09:15:45.923Z,40
2017-12-24T09:16:26.495Z,40
2017-12-24T09:17:07.052Z,40
2017-12-24T09:17:47.604Z,40
2017-12-24T09:18:28.223Z,40
2017-12-24T09:19:08.727Z,40
2017-12-24T09:19:49.303Z,40
2017-12-24T09:20:29.856Z,35
2017-12-24T09:21:10.361Z,35
2017-12-24T09:21:50.896Z,35
2017-12-24T09:22:31.444Z,35
2017-12-24T09:23:12.006Z,35
2017-12-24T09:23:52.559Z,35
2017-12-24T09:24:33.115Z,35
2017-12-24T09:25:13.651Z,40
2017-12-24T09:25:54.244Z,35
2017-12-24T09:26:34.743Z,40
2017-12-24T09:27:15.337Z,35
2017-12-24T09:27:55.880Z,35
2017-12-24T09:28:36.432Z,35
2017-12-24T09:29:16.979Z,35
2017-12-24T09:29:57.557Z,35
2017-12-24T09:30:38.101Z,35
2017-12-24T09:31:18.621Z,35
2017-12-24T09:31:59.175Z,35
2017-12-24T09:32:39.777Z,30
2017-12-24T09:33:20.281Z,30
2017-12-24T09:34:00.853Z,30
2017-12-24T09:34:41.386Z,35
2017-12-24T09:35:21.932Z,35
2017-12-24T09:36:02.498Z,30
2017-12-24T09:36:43.057Z,30
2017-12-24T09:37:23.605Z,30
2017-12-24T09:38:04.168Z,30
2017-12-24T09:38:44.689Z,30
2017-12-24T09:39:25.205Z,30
2017-12-24T09:40:05.736Z,30
2017-12-24T09:40:46.316Z,30
2017-12-24T09:41:26.889Z,30
2017-12-24T09:42:07.455Z,30
2017-12-24T09:42:47.963Z,25
2017-12-24T09:43:28.495Z,30
2017-12-24T09:44:09.052Z,30
2017-12-24T09:44:49.620Z,25
2017-12-24T09:45:30.176Z,25
2017-12-24T09:46:10.768Z,25
2017-12-24T09:46:51.332Z,30
2017-12-24T09:47:31.876Z,25
2017-12-24T09:48:12.418Z,25
2017-12-24T09:48:52.968Z,25
2017-12-24T09:49:33.516Z,25
2017-12-24T09:50:14.066Z,25
2017-12-24T09:50:54.600Z,25
2017-12-24T09:51:35.124Z,25
2017-12-24T09:52:15.703Z,25
2017-12-24T09:52:56.216Z,30
2017-12-24T09:53:36.765Z,25
2017-12-24T09:54:17.271Z,25